sensor_id;sensor_type;location;lat;lon;timestamp;pressure;altitude;pressure_sealevel;temperature;humidity
18569;BME280;14780;48.316;-1.050;2023-03-18T00:02:05;98022.44;;;24.63;34.63
18569;BME280;14780;48.316;-1.050;2023-03-18T00:04:50;98037.25;;;24.62;34.54
18569;BME280;14780;48.316;-1.050;2023-03-18T00:07:37;98024.69;;;24.61;34.46
18569;BME280;14780;48.316;-1.050;2023-03-18T00:10:22;98017.59;;;24.60;34.63
18569;BME280;14780;48.316;-1.050;2023-03-18T00:13:07;98021.44;;;24.59;34.43
18569;BME280;14780;48.316;-1.050;2023-03-18T00:15:53;98025.31;;;24.58;34.49
18569;BME280;14780;48.316;-1.050;2023-03-18T00:18:39;98019.84;;;24.58;34.65
18569;BME280;14780;48.316;-1.050;2023-03-18T00:21:23;98019.00;;;24.58;34.59
18569;BME280;14780;48.316;-1.050;2023-03-18T00:24:08;98016.56;;;24.56;34.65
18569;BME280;14780;48.316;-1.050;2023-03-18T00:26:53;98014.94;;;24.55;34.59
18569;BME280;14780;48.316;-1.050;2023-03-18T00:29:38;98020.41;;;24.55;34.64
18569;BME280;14780;48.316;-1.050;2023-03-18T00:32:25;98013.31;;;24.54;34.64
18569;BME280;14780;48.316;-1.050;2023-03-18T00:35:11;98020.41;;;24.55;34.70
18569;BME280;14780;48.316;-1.050;2023-03-18T00:37:56;98009.47;;;24.55;34.53
18569;BME280;14780;48.316;-1.050;2023-03-18T00:40:42;98013.31;;;24.54;34.68
18569;BME280;14780;48.316;-1.050;2023-03-18T00:43:41;98015.25;;;24.54;34.61
18569;BME280;14780;48.316;-1.050;2023-03-18T00:46:38;98010.06;;;24.52;34.61
18569;BME280;14780;48.316;-1.050;2023-03-18T00:49:23;98008.94;;;24.53;34.73
18569;BME280;14780;48.316;-1.050;2023-03-18T00:52:08;98001.88;;;24.52;34.72
18569;BME280;14780;48.316;-1.050;2023-03-18T00:54:53;98010.06;;;24.52;34.59
18569;BME280;14780;48.316;-1.050;2023-03-18T00:57:39;98005.41;;;24.53;34.63
18569;BME280;14780;48.316;-1.050;2023-03-18T01:00:25;98003.78;;;24.52;34.69
18569;BME280;14780;48.316;-1.050;2023-03-18T01:03:10;97998.63;;;24.50;34.58
18569;BME280;14780;48.316;-1.050;2023-03-18T01:05:55;98003.28;;;24.50;34.78
18569;BME280;14780;48.316;-1.050;2023-03-18T01:08:40;98005.22;;;24.49;34.78
18569;BME280;14780;48.316;-1.050;2023-03-18T01:11:26;98009.03;;;24.48;34.58
18569;BME280;14780;48.316;-1.050;2023-03-18T01:14:11;98006.63;;;24.47;34.66
18569;BME280;14780;48.316;-1.050;2023-03-18T01:16:56;98016.75;;;24.46;34.61
18569;BME280;14780;48.316;-1.050;2023-03-18T01:19:41;98014.00;;;24.46;34.76
18569;BME280;14780;48.316;-1.050;2023-03-18T01:22:25;98008.81;;;24.45;34.71
18569;BME280;14780;48.316;-1.050;2023-03-18T01:25:11;98003.69;;;24.43;34.72
18569;BME280;14780;48.316;-1.050;2023-03-18T01:27:56;98000.94;;;24.43;34.60
18569;BME280;14780;48.316;-1.050;2023-03-18T01:30:41;98000.41;;;24.41;34.74
18569;BME280;14780;48.316;-1.050;2023-03-18T01:33:26;97988.69;;;24.41;34.65
18569;BME280;14780;48.316;-1.050;2023-03-18T01:36:13;97985.44;;;24.39;34.62
18569;BME280;14780;48.316;-1.050;2023-03-18T01:38:59;97984.34;;;24.40;34.66
18569;BME280;14780;48.316;-1.050;2023-03-18T01:41:44;97977.53;;;24.37;34.66
18569;BME280;14780;48.316;-1.050;2023-03-18T01:44:30;97972.88;;;24.38;34.68
18569;BME280;14780;48.316;-1.050;2023-03-18T01:47:15;97967.72;;;24.36;34.77
18569;BME280;14780;48.316;-1.050;2023-03-18T01:50:00;97966.09;;;24.35;34.78
18569;BME280;14780;48.316;-1.050;2023-03-18T01:52:49;97971.03;;;24.33;34.73
18569;BME280;14780;48.316;-1.050;2023-03-18T01:55:36;97951.91;;;24.33;34.76
18569;BME280;14780;48.316;-1.050;2023-03-18T01:58:33;97949.19;;;24.33;34.67
18569;BME280;14780;48.316;-1.050;2023-03-18T02:01:45;97943.41;;;24.35;34.64
18569;BME280;14780;48.316;-1.050;2023-03-18T02:04:42;97936.13;;;24.30;34.87
18569;BME280;14780;48.316;-1.050;2023-03-18T02:07:31;97932.06;;;24.28;34.83
18569;BME280;14780;48.316;-1.050;2023-03-18T02:10:27;97925.78;;;24.27;34.74
18569;BME280;14780;48.316;-1.050;2023-03-18T02:13:13;97919.81;;;24.25;34.66
18569;BME280;14780;48.316;-1.050;2023-03-18T02:16:46;97914.63;;;24.24;34.75
18569;BME280;14780;48.316;-1.050;2023-03-18T02:19:34;97915.16;;;24.26;34.64
18569;BME280;14780;48.316;-1.050;2023-03-18T02:22:37;97915.47;;;24.24;34.77
18569;BME280;14780;48.316;-1.050;2023-03-18T02:25:58;97906.44;;;24.24;34.63
18569;BME280;14780;48.316;-1.050;2023-03-18T02:28:45;97909.00;;;24.20;34.70
18569;BME280;14780;48.316;-1.050;2023-03-18T02:31:35;97896.75;;;24.18;34.67
18569;BME280;14780;48.316;-1.050;2023-03-18T02:34:24;97892.41;;;24.17;34.69
18569;BME280;14780;48.316;-1.050;2023-03-18T02:37:10;97899.47;;;24.18;34.74
18569;BME280;14780;48.316;-1.050;2023-03-18T02:39:56;97905.53;;;24.15;34.80
18569;BME280;14780;48.316;-1.050;2023-03-18T02:42:55;97885.59;;;24.14;34.72
18569;BME280;14780;48.316;-1.050;2023-03-18T02:48:43;97888.00;;;24.16;34.76
18569;BME280;14780;48.316;-1.050;2023-03-18T02:51:29;97884.00;;;24.13;34.82
18569;BME280;14780;48.316;-1.050;2023-03-18T02:54:23;97885.91;;;24.13;34.72
18569;BME280;14780;48.316;-1.050;2023-03-18T02:57:08;97873.66;;;24.10;34.81
18569;BME280;14780;48.316;-1.050;2023-03-18T02:59:53;97873.94;;;24.09;34.85
18569;BME280;14780;48.316;-1.050;2023-03-18T03:02:38;97873.16;;;24.08;34.78
18569;BME280;14780;48.316;-1.050;2023-03-18T03:05:22;97871.53;;;24.07;34.77
18569;BME280;14780;48.316;-1.050;2023-03-18T03:08:08;97865.25;;;24.07;34.74
18569;BME280;14780;48.316;-1.050;2023-03-18T03:10:53;97864.44;;;24.06;34.79
18569;BME280;14780;48.316;-1.050;2023-03-18T03:13:40;97865.53;;;24.05;34.77
18569;BME280;14780;48.316;-1.050;2023-03-18T03:16:25;97862.81;;;24.05;34.88
18569;BME280;14780;48.316;-1.050;2023-03-18T03:19:10;97858.97;;;24.06;34.78
18569;BME280;14780;48.316;-1.050;2023-03-18T03:21:55;97869.38;;;24.04;34.78
18569;BME280;14780;48.316;-1.050;2023-03-18T03:24:40;97857.34;;;24.05;34.85
18569;BME280;14780;48.316;-1.050;2023-03-18T03:27:25;97856.53;;;24.05;34.89
18569;BME280;14780;48.316;-1.050;2023-03-18T03:30:12;97857.13;;;24.02;34.73
18569;BME280;14780;48.316;-1.050;2023-03-18T03:32:57;97849.75;;;24.02;34.78
18569;BME280;14780;48.316;-1.050;2023-03-18T03:35:42;97847.03;;;24.02;34.72
18569;BME280;14780;48.316;-1.050;2023-03-18T03:38:27;97839.94;;;24.01;34.77
18569;BME280;14780;48.316;-1.050;2023-03-18T03:41:12;97840.25;;;24.00;34.89
18569;BME280;14780;48.316;-1.050;2023-03-18T03:43:59;97831.25;;;23.99;34.73
18569;BME280;14780;48.316;-1.050;2023-03-18T03:46:44;97836.72;;;23.99;34.88
18569;BME280;14780;48.316;-1.050;2023-03-18T03:49:29;97833.97;;;23.99;34.88
18569;BME280;14780;48.316;-1.050;2023-03-18T03:52:14;97829.59;;;23.98;34.93
18569;BME280;14780;48.316;-1.050;2023-03-18T03:55:02;97828.00;;;23.97;34.79
18569;BME280;14780;48.316;-1.050;2023-03-18T03:57:48;97837.31;;;23.96;34.92
18569;BME280;14780;48.316;-1.050;2023-03-18T04:00:32;97835.69;;;23.95;34.78
18569;BME280;14780;48.316;-1.050;2023-03-18T04:03:17;97835.69;;;23.95;34.91
18569;BME280;14780;48.316;-1.050;2023-03-18T04:06:02;97832.13;;;23.95;34.90
18569;BME280;14780;48.316;-1.050;2023-03-18T04:08:46;97831.34;;;23.94;34.81
18569;BME280;14780;48.316;-1.050;2023-03-18T04:11:31;97827.00;;;23.93;34.90
18569;BME280;14780;48.316;-1.050;2023-03-18T04:14:15;97841.78;;;23.92;34.89
18569;BME280;14780;48.316;-1.050;2023-03-18T04:17:01;97846.41;;;23.92;34.77
18569;BME280;14780;48.316;-1.050;2023-03-18T04:19:46;97854.91;;;23.90;34.87
18569;BME280;14780;48.316;-1.050;2023-03-18T04:22:32;97863.09;;;23.90;34.88
18569;BME280;14780;48.316;-1.050;2023-03-18T04:25:17;97866.94;;;23.89;34.81
18569;BME280;14780;48.316;-1.050;2023-03-18T04:28:02;97866.94;;;23.89;34.82
18569;BME280;14780;48.316;-1.050;2023-03-18T04:30:48;97873.00;;;23.86;34.96
18569;BME280;14780;48.316;-1.050;2023-03-18T04:33:34;97875.44;;;23.88;34.94
18569;BME280;14780;48.316;-1.050;2023-03-18T04:36:18;97880.38;;;23.86;34.95
18569;BME280;14780;48.316;-1.050;2023-03-18T04:39:03;97884.19;;;23.85;34.87
18569;BME280;14780;48.316;-1.050;2023-03-18T04:41:48;97891.31;;;23.86;34.84
18569;BME280;14780;48.316;-1.050;2023-03-18T04:44:32;97886.66;;;23.86;34.94
18569;BME280;14780;48.316;-1.050;2023-03-18T04:47:17;97887.22;;;23.83;34.99
18569;BME280;14780;48.316;-1.050;2023-03-18T04:50:03;97897.84;;;23.85;34.87
18569;BME280;14780;48.316;-1.050;2023-03-18T04:52:48;97883.69;;;23.83;34.92
18569;BME280;14780;48.316;-1.050;2023-03-18T04:55:32;97895.75;;;23.82;35.01
18569;BME280;14780;48.316;-1.050;2023-03-18T04:58:17;97890.88;;;23.79;34.96
18569;BME280;14780;48.316;-1.050;2023-03-18T05:01:01;97890.88;;;23.79;34.97
18569;BME280;14780;48.316;-1.050;2023-03-18T05:03:47;97901.00;;;23.78;34.93
18569;BME280;14780;48.316;-1.050;2023-03-18T05:06:32;97901.00;;;23.78;34.95
18569;BME280;14780;48.316;-1.050;2023-03-18T05:09:17;97901.00;;;23.78;34.92
18569;BME280;14780;48.316;-1.050;2023-03-18T05:12:02;97895.00;;;23.76;35.08
18569;BME280;14780;48.316;-1.050;2023-03-18T05:14:48;97891.47;;;23.76;34.97
18569;BME280;14780;48.316;-1.050;2023-03-18T05:17:33;97899.16;;;23.74;35.03
18569;BME280;14780;48.316;-1.050;2023-03-18T05:20:19;97892.88;;;23.73;34.96
18569;BME280;14780;48.316;-1.050;2023-03-18T05:23:04;97892.06;;;23.73;34.97
18569;BME280;14780;48.316;-1.050;2023-03-18T05:25:49;97906.81;;;23.72;34.95
18569;BME280;14780;48.316;-1.050;2023-03-18T05:28:35;97901.34;;;23.72;35.02
18569;BME280;14780;48.316;-1.050;2023-03-18T05:31:20;97899.75;;;23.71;35.04
18569;BME280;14780;48.316;-1.050;2023-03-18T05:34:05;97901.69;;;23.70;35.01
18569;BME280;14780;48.316;-1.050;2023-03-18T05:36:50;97902.75;;;23.69;35.10
18569;BME280;14780;48.316;-1.050;2023-03-18T05:39:36;97898.13;;;23.70;35.09
18569;BME280;14780;48.316;-1.050;2023-03-18T05:42:21;97895.69;;;23.68;34.99
18569;BME280;14780;48.316;-1.050;2023-03-18T05:45:07;97897.31;;;23.69;34.96
18569;BME280;14780;48.316;-1.050;2023-03-18T05:47:52;97903.09;;;23.68;35.12
18569;BME280;14780;48.316;-1.050;2023-03-18T05:50:40;97905.00;;;23.67;35.04
18569;BME280;14780;48.316;-1.050;2023-03-18T05:53:25;97903.88;;;23.68;35.15
18569;BME280;14780;48.316;-1.050;2023-03-18T05:56:10;97910.47;;;23.67;35.08
18569;BME280;14780;48.316;-1.050;2023-03-18T05:58:56;97903.38;;;23.66;35.12
18569;BME280;14780;48.316;-1.050;2023-03-18T06:01:41;97907.72;;;23.67;35.12
18569;BME280;14780;48.316;-1.050;2023-03-18T06:04:26;97911.56;;;23.66;35.11
18569;BME280;14780;48.316;-1.050;2023-03-18T06:07:11;97915.13;;;23.67;35.18
18569;BME280;14780;48.316;-1.050;2023-03-18T06:09:55;97915.91;;;23.67;35.12
18569;BME280;14780;48.316;-1.050;2023-03-18T06:12:41;97920.59;;;23.67;35.04
18569;BME280;14780;48.316;-1.050;2023-03-18T06:15:28;97914.28;;;23.66;35.11
18569;BME280;14780;48.316;-1.050;2023-03-18T06:18:14;97925.22;;;23.66;35.17
18569;BME280;14780;48.316;-1.050;2023-03-18T06:20:58;97935.31;;;23.66;35.16
18569;BME280;14780;48.316;-1.050;2023-03-18T06:23:43;97930.97;;;23.65;35.17
18569;BME280;14780;48.316;-1.050;2023-03-18T06:26:28;97931.28;;;23.63;35.23
18569;BME280;14780;48.316;-1.050;2023-03-18T06:29:13;97926.63;;;23.64;35.12
18569;BME280;14780;48.316;-1.050;2023-03-18T06:31:58;97936.75;;;23.63;35.21
18569;BME280;14780;48.316;-1.050;2023-03-18T06:34:42;97939.47;;;23.63;35.14
18569;BME280;14780;48.316;-1.050;2023-03-18T06:37:27;97939.78;;;23.62;35.16
18569;BME280;14780;48.316;-1.050;2023-03-18T06:40:12;97938.94;;;23.61;35.07
18569;BME280;14780;48.316;-1.050;2023-03-18T06:42:56;97941.38;;;23.63;35.08
18569;BME280;14780;48.316;-1.050;2023-03-18T06:45:41;97944.41;;;23.61;35.13
18569;BME280;14780;48.316;-1.050;2023-03-18T06:48:26;97940.06;;;23.60;35.24
18569;BME280;14780;48.316;-1.050;2023-03-18T06:51:12;97948.25;;;23.60;35.19
18569;BME280;14780;48.316;-1.050;2023-03-18T06:53:57;97949.38;;;23.59;35.15
18569;BME280;14780;48.316;-1.050;2023-03-18T06:56:42;97952.09;;;23.59;35.20
18569;BME280;14780;48.316;-1.050;2023-03-18T06:59:28;97942.28;;;23.58;35.16
18569;BME280;14780;48.316;-1.050;2023-03-18T07:02:14;97945.03;;;23.58;35.15
18569;BME280;14780;48.316;-1.050;2023-03-18T07:04:59;97942.28;;;23.58;35.17
18569;BME280;14780;48.316;-1.050;2023-03-18T07:07:43;97948.84;;;23.57;35.22
18569;BME280;14780;48.316;-1.050;2023-03-18T07:10:30;97952.38;;;23.58;35.13
18569;BME280;14780;48.316;-1.050;2023-03-18T07:13:15;97934.66;;;23.55;35.22
18569;BME280;14780;48.316;-1.050;2023-03-18T07:16:00;97945.59;;;23.55;35.26
18569;BME280;14780;48.316;-1.050;2023-03-18T07:18:44;97949.44;;;23.54;35.26
18569;BME280;14780;48.316;-1.050;2023-03-18T07:21:29;97949.44;;;23.54;35.16
18569;BME280;14780;48.316;-1.050;2023-03-18T07:24:15;97945.91;;;23.54;35.29
18569;BME280;14780;48.316;-1.050;2023-03-18T07:27:00;97952.47;;;23.53;35.17
18569;BME280;14780;48.316;-1.050;2023-03-18T07:29:46;97957.94;;;23.53;35.22
18569;BME280;14780;48.316;-1.050;2023-03-18T07:32:30;97956.63;;;23.50;35.33
18569;BME280;14780;48.316;-1.050;2023-03-18T07:35:15;97960.13;;;23.51;35.32
18569;BME280;14780;48.316;-1.050;2023-03-18T07:38:01;97966.41;;;23.51;35.20
18569;BME280;14780;48.316;-1.050;2023-03-18T07:40:46;97968.66;;;23.49;35.28
18569;BME280;14780;48.316;-1.050;2023-03-18T07:43:32;97980.34;;;23.50;35.26
18569;BME280;14780;48.316;-1.050;2023-03-18T07:46:17;97982.59;;;23.48;35.25
18569;BME280;14780;48.316;-1.050;2023-03-18T07:49:01;97977.94;;;23.48;35.27
18569;BME280;14780;48.316;-1.050;2023-03-18T07:51:46;97994.31;;;23.48;35.35
18569;BME280;14780;48.316;-1.050;2023-03-18T07:54:30;97987.22;;;23.47;35.35
18569;BME280;14780;48.316;-1.050;2023-03-18T07:57:16;97992.69;;;23.47;35.33
18569;BME280;14780;48.316;-1.050;2023-03-18T08:00:01;97994.09;;;23.45;35.38
18569;BME280;14780;48.316;-1.050;2023-03-18T08:02:46;97990.25;;;23.46;35.29
18569;BME280;14780;48.316;-1.050;2023-03-18T08:05:31;97999.56;;;23.45;35.44
18569;BME280;14780;48.316;-1.050;2023-03-18T08:08:17;97999.56;;;23.45;35.30
18569;BME280;14780;48.316;-1.050;2023-03-18T08:11:02;98000.34;;;23.45;35.36
18569;BME280;14780;48.316;-1.050;2023-03-18T08:13:47;98005.03;;;23.45;35.37
18569;BME280;14780;48.316;-1.050;2023-03-18T08:16:32;98003.09;;;23.45;35.39
18569;BME280;14780;48.316;-1.050;2023-03-18T08:19:16;98005.03;;;23.45;35.26
18569;BME280;14780;48.316;-1.050;2023-03-18T08:22:01;98010.47;;;23.45;35.34
18569;BME280;14780;48.316;-1.050;2023-03-18T08:24:46;98014.00;;;23.45;35.38
18569;BME280;14780;48.316;-1.050;2023-03-18T08:27:31;98015.94;;;23.45;35.34
18569;BME280;14780;48.316;-1.050;2023-03-18T08:30:16;98023.03;;;23.46;35.48
18569;BME280;14780;48.316;-1.050;2023-03-18T08:33:01;98022.19;;;23.45;35.37
18569;BME280;14780;48.316;-1.050;2023-03-18T08:35:47;98017.84;;;23.44;35.40
18569;BME280;14780;48.316;-1.050;2023-03-18T08:38:31;98020.28;;;23.46;35.33
18569;BME280;14780;48.316;-1.050;2023-03-18T08:41:16;98024.13;;;23.45;35.48
18569;BME280;14780;48.316;-1.050;2023-03-18T08:44:02;98027.66;;;23.45;35.47
18569;BME280;14780;48.316;-1.050;2023-03-18T08:46:49;98022.19;;;23.45;35.34
18569;BME280;14780;48.316;-1.050;2023-03-18T08:49:34;98031.22;;;23.46;35.36
18569;BME280;14780;48.316;-1.050;2023-03-18T08:52:20;98033.13;;;23.45;35.35
18569;BME280;14780;48.316;-1.050;2023-03-18T08:55:06;98027.66;;;23.45;35.32
18569;BME280;14780;48.316;-1.050;2023-03-18T08:57:51;98039.69;;;23.44;35.42
18569;BME280;14780;48.316;-1.050;2023-03-18T09:00:38;98037.56;;;23.42;35.48
18569;BME280;14780;48.316;-1.050;2023-03-18T09:03:25;98035.34;;;23.43;35.54
18569;BME280;14780;48.316;-1.050;2023-03-18T09:06:09;98047.38;;;23.42;35.65
18569;BME280;14780;48.316;-1.050;2023-03-18T09:08:54;98046.25;;;23.43;35.61
18569;BME280;14780;48.316;-1.050;2023-03-18T09:11:39;98045.66;;;23.46;35.75
18569;BME280;14780;48.316;-1.050;2023-03-18T09:14:24;98048.38;;;23.46;35.72
18569;BME280;14780;48.316;-1.050;2023-03-18T09:17:09;98053.84;;;23.46;35.86
18569;BME280;14780;48.316;-1.050;2023-03-18T09:19:54;98057.41;;;23.47;35.90
18569;BME280;14780;48.316;-1.050;2023-03-18T09:22:43;98058.19;;;23.47;35.89
18569;BME280;14780;48.316;-1.050;2023-03-18T09:25:29;98058.19;;;23.47;35.91
18569;BME280;14780;48.316;-1.050;2023-03-18T09:28:13;98067.50;;;23.46;35.98
18569;BME280;14780;48.316;-1.050;2023-03-18T09:30:58;98062.03;;;23.46;36.04
18569;BME280;14780;48.316;-1.050;2023-03-18T09:33:43;98067.50;;;23.46;35.98
18569;BME280;14780;48.316;-1.050;2023-03-18T09:36:28;98073.50;;;23.48;36.10
18569;BME280;14780;48.316;-1.050;2023-03-18T09:39:12;98071.34;;;23.45;36.21
18569;BME280;14780;48.316;-1.050;2023-03-18T09:48:38;98084.69;;;23.47;36.20
18569;BME280;14780;48.316;-1.050;2023-03-18T09:54:35;98090.38;;;23.50;36.00
18569;BME280;14780;48.316;-1.050;2023-03-18T09:57:28;98097.53;;;23.46;36.22
18569;BME280;14780;48.316;-1.050;2023-03-18T10:03:14;98099.69;;;23.49;36.30
18569;BME280;14780;48.316;-1.050;2023-03-18T10:06:15;98095.84;;;23.50;36.16
18569;BME280;14780;48.316;-1.050;2023-03-18T10:12:20;98095.34;;;23.48;36.37
18569;BME280;14780;48.316;-1.050;2023-03-18T10:15:20;98105.16;;;23.49;36.17
18569;BME280;14780;48.316;-1.050;2023-03-18T10:18:34;98113.84;;;23.51;36.07
18569;BME280;14780;48.316;-1.050;2023-03-18T10:21:20;98112.69;;;23.57;35.90
18569;BME280;14780;48.316;-1.050;2023-03-18T10:30:18;98123.72;;;23.47;36.21
18569;BME280;14780;48.316;-1.050;2023-03-18T10:36:13;98124.25;;;23.49;36.19
18569;BME280;14780;48.316;-1.050;2023-03-18T10:39:02;98119.91;;;23.48;36.30
18569;BME280;14780;48.316;-1.050;2023-03-18T10:41:49;98121.53;;;23.49;36.36
18569;BME280;14780;48.316;-1.050;2023-03-18T10:44:37;98128.88;;;23.49;36.34
18569;BME280;14780;48.316;-1.050;2023-03-18T10:47:28;98127.78;;;23.50;36.44
18569;BME280;14780;48.316;-1.050;2023-03-18T10:53:33;98123.38;;;23.54;36.25
18569;BME280;14780;48.316;-1.050;2023-03-18T10:56:22;98129.41;;;23.51;36.33
18569;BME280;14780;48.316;-1.050;2023-03-18T10:59:14;98126.38;;;23.52;36.34
18569;BME280;14780;48.316;-1.050;2023-03-18T11:02:16;98131.25;;;23.55;36.23
18569;BME280;14780;48.316;-1.050;2023-03-18T11:05:12;98133.47;;;23.53;36.49
18569;BME280;14780;48.316;-1.050;2023-03-18T11:08:05;98130.75;;;23.53;36.33
18569;BME280;14780;48.316;-1.050;2023-03-18T11:10:52;98129.63;;;23.54;36.48
18569;BME280;14780;48.316;-1.050;2023-03-18T11:13:37;98142.19;;;23.55;36.39
18569;BME280;14780;48.316;-1.050;2023-03-18T11:16:41;98143.50;;;23.58;36.31
18569;BME280;14780;48.316;-1.050;2023-03-18T11:22:23;98141.59;;;23.58;36.53
18569;BME280;14780;48.316;-1.050;2023-03-18T11:25:14;98140.00;;;23.57;36.54
18569;BME280;14780;48.316;-1.050;2023-03-18T11:28:04;98141.25;;;23.65;36.09
18569;BME280;14780;48.316;-1.050;2023-03-18T11:30:54;98144.63;;;23.57;36.41
18569;BME280;14780;48.316;-1.050;2023-03-18T11:33:39;98136.72;;;23.55;36.47
18569;BME280;14780;48.316;-1.050;2023-03-18T11:36:26;98133.69;;;23.57;36.53
18569;BME280;14780;48.316;-1.050;2023-03-18T11:39:14;98145.97;;;23.59;36.44
18569;BME280;14780;48.316;-1.050;2023-03-18T11:42:00;98138.59;;;23.60;36.56
18569;BME280;14780;48.316;-1.050;2023-03-18T11:44:45;98144.28;;;23.63;36.51
18569;BME280;14780;48.316;-1.050;2023-03-18T11:47:32;98141.56;;;23.63;36.42
18569;BME280;14780;48.316;-1.050;2023-03-18T11:50:21;98148.31;;;23.66;36.53
18569;BME280;14780;48.316;-1.050;2023-03-18T11:54:16;98149.38;;;23.70;36.44
18569;BME280;14780;48.316;-1.050;2023-03-18T11:59:55;98152.34;;;23.73;36.45
18569;BME280;14780;48.316;-1.050;2023-03-18T12:03:21;98146.81;;;23.78;36.42
18569;BME280;14780;48.316;-1.050;2023-03-18T12:06:22;98149.53;;;23.78;36.59
18569;BME280;14780;48.316;-1.050;2023-03-18T12:12:42;98148.66;;;23.83;36.43
18569;BME280;14780;48.316;-1.050;2023-03-18T12:42:15;98144.84;;;24.02;36.45
18569;BME280;14780;48.316;-1.050;2023-03-18T12:45:18;98149.81;;;24.00;36.35
18569;BME280;14780;48.316;-1.050;2023-03-18T12:48:16;98153.03;;;24.02;36.41
18569;BME280;14780;48.316;-1.050;2023-03-18T12:51:09;98155.50;;;24.04;36.56
18569;BME280;14780;48.316;-1.050;2023-03-18T12:53:59;98151.66;;;24.05;36.50
18569;BME280;14780;48.316;-1.050;2023-03-18T12:56:49;98153.28;;;24.06;36.64
18569;BME280;14780;48.316;-1.050;2023-03-18T13:00:00;98143.91;;;24.12;36.55
18569;BME280;14780;48.316;-1.050;2023-03-18T13:02:51;98157.84;;;24.10;36.74
18569;BME280;14780;48.316;-1.050;2023-03-18T13:17:38;98188.56;;;24.02;36.77
18569;BME280;14780;48.316;-1.050;2023-03-18T13:20:30;98177.13;;;24.00;36.84
18569;BME280;14780;48.316;-1.050;2023-03-18T13:32:55;98172.19;;;24.02;36.79
18569;BME280;14780;48.316;-1.050;2023-03-18T13:44:23;98173.22;;;24.06;36.98
18569;BME280;14780;48.316;-1.050;2023-03-18T13:47:17;98175.56;;;24.13;36.96
18569;BME280;14780;48.316;-1.050;2023-03-18T13:53:03;98174.91;;;24.21;37.20
18569;BME280;14780;48.316;-1.050;2023-03-18T13:56:24;98175.63;;;24.26;37.25
18569;BME280;14780;48.316;-1.050;2023-03-18T13:59:05;98182.44;;;24.29;37.19
18569;BME280;14780;48.316;-1.050;2023-03-18T14:01:50;98167.38;;;24.31;37.21
18569;BME280;14780;48.316;-1.050;2023-03-18T14:04:49;98166.19;;;24.37;37.11
18569;BME280;14780;48.316;-1.050;2023-03-18T14:07:45;98164.47;;;24.41;37.08
18569;BME280;14780;48.316;-1.050;2023-03-18T14:10:32;98158.69;;;24.43;37.22
18569;BME280;14780;48.316;-1.050;2023-03-18T14:13:26;98161.16;;;24.44;37.14
18569;BME280;14780;48.316;-1.050;2023-03-18T14:16:16;98160.03;;;24.45;37.23
18569;BME280;14780;48.316;-1.050;2023-03-18T14:19:25;98170.28;;;24.53;37.17
18569;BME280;14780;48.316;-1.050;2023-03-18T14:22:27;98161.81;;;24.55;37.24
18569;BME280;14780;48.316;-1.050;2023-03-18T14:31:24;98169.50;;;24.71;37.03
18569;BME280;14780;48.316;-1.050;2023-03-18T14:37:17;98163.91;;;24.76;37.17
18569;BME280;14780;48.316;-1.050;2023-03-18T14:40:14;98158.66;;;24.80;37.08
18569;BME280;14780;48.316;-1.050;2023-03-18T14:43:01;98161.72;;;24.78;37.23
18569;BME280;14780;48.316;-1.050;2023-03-18T14:45:56;98157.31;;;24.77;37.16
18569;BME280;14780;48.316;-1.050;2023-03-18T14:48:42;98159.78;;;24.79;37.07
18569;BME280;14780;48.316;-1.050;2023-03-18T14:51:28;98159.47;;;24.80;37.15
18569;BME280;14780;48.316;-1.050;2023-03-18T14:54:19;98167.06;;;24.83;37.18
18569;BME280;14780;48.316;-1.050;2023-03-18T14:57:08;98167.59;;;24.85;37.05
18569;BME280;14780;48.316;-1.050;2023-03-18T14:59:52;98173.06;;;24.85;36.95
18569;BME280;14780;48.316;-1.050;2023-03-18T15:02:38;98165.94;;;24.84;37.09
18569;BME280;14780;48.316;-1.050;2023-03-18T15:05:23;98173.06;;;24.85;36.96
18569;BME280;14780;48.316;-1.050;2023-03-18T15:08:24;98173.28;;;24.89;36.96
18569;BME280;14780;48.316;-1.050;2023-03-18T15:11:11;98177.09;;;24.88;36.91
18569;BME280;14780;48.316;-1.050;2023-03-18T15:13:56;98176.53;;;24.91;37.05
18569;BME280;14780;48.316;-1.050;2023-03-18T15:16:47;98187.97;;;24.93;37.05
18569;BME280;14780;48.316;-1.050;2023-03-18T15:19:31;98184.63;;;24.96;36.96
18569;BME280;14780;48.316;-1.050;2023-03-18T15:22:22;98185.44;;;24.96;36.98
18569;BME280;14780;48.316;-1.050;2023-03-18T15:25:18;98186.06;;;24.93;36.85
18569;BME280;14780;48.316;-1.050;2023-03-18T15:28:04;98187.16;;;24.92;36.88
18569;BME280;14780;48.316;-1.050;2023-03-18T15:30:55;98192.44;;;24.89;36.80
18569;BME280;14780;48.316;-1.050;2023-03-18T15:33:40;98191.63;;;24.88;36.92
18569;BME280;14780;48.316;-1.050;2023-03-18T15:36:25;98202.06;;;24.86;36.90
18569;BME280;14780;48.316;-1.050;2023-03-18T15:39:38;98198.22;;;24.87;36.84
18569;BME280;14780;48.316;-1.050;2023-03-18T15:42:23;98197.78;;;24.80;36.76
18569;BME280;14780;48.316;-1.050;2023-03-18T15:45:16;98197.28;;;24.78;36.81
18569;BME280;14780;48.316;-1.050;2023-03-18T15:48:28;98190.69;;;24.79;36.83
18569;BME280;14780;48.316;-1.050;2023-03-18T15:51:42;98195.34;;;24.79;36.89
18569;BME280;14780;48.316;-1.050;2023-03-18T15:54:36;98196.53;;;24.73;36.72
18569;BME280;14780;48.316;-1.050;2023-03-18T15:57:37;98196.53;;;24.73;36.89
18569;BME280;14780;48.316;-1.050;2023-03-18T16:00:22;98204.50;;;24.69;36.90
18569;BME280;14780;48.316;-1.050;2023-03-18T16:03:18;98203.72;;;24.69;36.77
18569;BME280;14780;48.316;-1.050;2023-03-18T16:06:05;98206.25;;;24.65;36.84
18569;BME280;14780;48.316;-1.050;2023-03-18T16:08:50;98219.09;;;24.65;36.88
18569;BME280;14780;48.316;-1.050;2023-03-18T16:11:35;98219.38;;;24.63;36.82
18569;BME280;14780;48.316;-1.050;2023-03-18T16:14:23;98216.13;;;24.61;36.82
18569;BME280;14780;48.316;-1.050;2023-03-18T16:17:13;98209.88;;;24.61;36.96
18569;BME280;14780;48.316;-1.050;2023-03-18T16:19:59;98217.25;;;24.60;36.88
18569;BME280;14780;48.316;-1.050;2023-03-18T16:22:48;98215.63;;;24.59;36.88
18569;BME280;14780;48.316;-1.050;2023-03-18T16:25:33;98223.84;;;24.59;36.75
18569;BME280;14780;48.316;-1.050;2023-03-18T16:28:24;98220.59;;;24.57;36.72
18569;BME280;14780;48.316;-1.050;2023-03-18T16:31:09;98225.25;;;24.57;36.85